Oviedo en Asturias

latitud = 43° 21' 16''N | longitud = 005° 52' 22''W
231 metros sobre el nivel del mar | datos mensuales

Fecha, hora, temperatura, viento dirección y velocidad, humedad y presión.

  • 21-01-2018 02:00:00 | 12.90°C | Noroeste |14.00 km/h | 72.00% | 987.30 hPa
  • 21-01-2018 01:00:00 | 13.40°C | Noroeste |10.00 km/h | 70.00% | 987.20 hPa
  • 21-01-2018 00:00:00 | 13.90°C | Noroeste |15.00 km/h | 67.00% | 986.70 hPa
  • 20-01-2018 23:00:00 | 14.10°C | Noroeste |14.00 km/h | 67.00% | 986.20 hPa
  • 20-01-2018 22:00:00 | 14.40°C | Noroeste |15.00 km/h | 65.00% | 986.00 hPa
  • 20-01-2018 21:00:00 | 14.50°C | Oeste |21.00 km/h | 65.00% | 985.80 hPa
  • 20-01-2018 20:00:00 | 14.30°C | Noroeste |13.00 km/h | 67.00% | 985.60 hPa
  • 20-01-2018 19:00:00 | 14.80°C | Noroeste |17.00 km/h | 64.00% | 985.10 hPa
  • 20-01-2018 18:00:00 | 14.80°C | Noroeste |14.00 km/h | 64.00% | 984.50 hPa
  • 20-01-2018 17:00:00 | 15.70°C | Oeste |21.00 km/h | 62.00% | 983.90 hPa
  • 20-01-2018 16:00:00 | 16.00°C | Oeste |29.00 km/h | 61.00% | 983.50 hPa
  • 20-01-2018 15:00:00 | 15.60°C | Oeste |20.00 km/h | 62.00% | 983.50 hPa
  • 20-01-2018 14:00:00 | 15.20°C | Noroeste |14.00 km/h | 62.00% | 983.80 hPa
  • 20-01-2018 13:00:00 | 15.30°C | Noroeste |22.00 km/h | 61.00% | 984.20 hPa
  • 20-01-2018 12:00:00 | 14.70°C | Oeste |23.00 km/h | 63.00% | 984.70 hPa
  • 20-01-2018 11:00:00 | 13.90°C | Oeste |19.00 km/h | 65.00% | 984.50 hPa
  • 20-01-2018 10:00:00 | 10.40°C | Noroeste |13.00 km/h | 69.00% | 984.70 hPa
  • 20-01-2018 09:00:00 | 8.60°C | Noroeste |9.00 km/h | 68.00% | 984.20 hPa
  • 20-01-2018 08:00:00 | 6.20°C | Sudoeste |9.00 km/h | 75.00% | 983.80 hPa
  • 20-01-2018 07:00:00 | 5.80°C | Sudoeste |5.00 km/h | 78.00% | 983.10 hPa
  • 20-01-2018 06:00:00 | 6.00°C | Sur |10.00 km/h | 82.00% | 983.10 hPa
  • 20-01-2018 05:00:00 | 6.10°C | Sur |10.00 km/h | 80.00% | 983.40 hPa
  • 20-01-2018 04:00:00 | 5.80°C | Sur |9.00 km/h | 85.00% | 984.00 hPa
  • 20-01-2018 03:00:00 | 5.80°C | Sur |8.00 km/h | 87.00% | 984.50 hPa